sensor_id;sensor_type;location;lat;lon;timestamp;P1;durP1;ratioP1;P2;durP2;ratioP2
83495;SDS011;73431;40.794;43.836;2023-11-18T00:00:15;15.30;;;8.40;;
83495;SDS011;73431;40.794;43.836;2023-11-18T00:02:44;24.88;;;11.02;;
83495;SDS011;73431;40.794;43.836;2023-11-18T00:05:13;27.88;;;11.10;;
83495;SDS011;73431;40.794;43.836;2023-11-18T00:07:41;28.20;;;10.63;;
83495;SDS011;73431;40.794;43.836;2023-11-18T00:10:09;28.92;;;10.73;;
83495;SDS011;73431;40.794;43.836;2023-11-18T00:12:37;27.92;;;9.75;;
83495;SDS011;73431;40.794;43.836;2023-11-18T00:15:09;20.80;;;9.90;;
83495;SDS011;73431;40.794;43.836;2023-11-18T00:17:39;19.95;;;8.73;;
83495;SDS011;73431;40.794;43.836;2023-11-18T00:20:08;18.25;;;9.30;;
83495;SDS011;73431;40.794;43.836;2023-11-18T00:22:36;22.85;;;9.77;;
83495;SDS011;73431;40.794;43.836;2023-11-18T00:25:05;20.40;;;9.07;;
83495;SDS011;73431;40.794;43.836;2023-11-18T00:27:36;21.05;;;9.60;;
83495;SDS011;73431;40.794;43.836;2023-11-18T00:30:04;17.70;;;7.38;;
83495;SDS011;73431;40.794;43.836;2023-11-18T00:32:35;18.45;;;8.55;;
83495;SDS011;73431;40.794;43.836;2023-11-18T00:35:04;19.67;;;9.20;;
83495;SDS011;73431;40.794;43.836;2023-11-18T00:37:32;18.58;;;8.85;;
83495;SDS011;73431;40.794;43.836;2023-11-18T00:40:00;20.92;;;8.48;;
83495;SDS011;73431;40.794;43.836;2023-11-18T00:42:31;17.02;;;7.93;;
83495;SDS011;73431;40.794;43.836;2023-11-18T00:44:59;16.10;;;7.95;;
83495;SDS011;73431;40.794;43.836;2023-11-18T00:47:32;18.35;;;8.25;;
83495;SDS011;73431;40.794;43.836;2023-11-18T00:50:00;19.08;;;8.98;;
83495;SDS011;73431;40.794;43.836;2023-11-18T00:52:32;18.08;;;8.57;;
83495;SDS011;73431;40.794;43.836;2023-11-18T00:57:29;21.45;;;8.15;;
83495;SDS011;73431;40.794;43.836;2023-11-18T00:59:59;20.20;;;8.18;;
83495;SDS011;73431;40.794;43.836;2023-11-18T01:02:28;16.27;;;8.55;;
83495;SDS011;73431;40.794;43.836;2023-11-18T01:04:56;15.82;;;8.00;;
83495;SDS011;73431;40.794;43.836;2023-11-18T01:07:24;14.88;;;7.78;;
83495;SDS011;73431;40.794;43.836;2023-11-18T01:09:52;15.32;;;7.75;;
83495;SDS011;73431;40.794;43.836;2023-11-18T01:12:19;17.52;;;7.82;;
83495;SDS011;73431;40.794;43.836;2023-11-18T01:14:47;19.55;;;8.43;;
83495;SDS011;73431;40.794;43.836;2023-11-18T01:21:15;16.40;;;7.40;;
83495;SDS011;73431;40.794;43.836;2023-11-18T01:23:44;18.88;;;7.50;;
83495;SDS011;73431;40.794;43.836;2023-11-18T01:26:12;19.02;;;7.40;;
83495;SDS011;73431;40.794;43.836;2023-11-18T01:28:40;13.57;;;7.35;;
83495;SDS011;73431;40.794;43.836;2023-11-18T01:31:12;14.68;;;7.47;;
83495;SDS011;73431;40.794;43.836;2023-11-18T01:36:08;15.23;;;7.28;;
83495;SDS011;73431;40.794;43.836;2023-11-18T01:38:36;15.50;;;8.15;;
83495;SDS011;73431;40.794;43.836;2023-11-18T01:41:05;16.90;;;7.05;;
83495;SDS011;73431;40.794;43.836;2023-11-18T01:43:33;12.55;;;6.85;;
83495;SDS011;73431;40.794;43.836;2023-11-18T01:46:02;12.07;;;6.65;;
83495;SDS011;73431;40.794;43.836;2023-11-18T01:48:32;12.80;;;6.45;;
83495;SDS011;73431;40.794;43.836;2023-11-18T01:51:04;14.20;;;7.35;;
83495;SDS011;73431;40.794;43.836;2023-11-18T01:53:34;21.02;;;7.28;;
83495;SDS011;73431;40.794;43.836;2023-11-18T01:56:06;17.17;;;7.00;;
83495;SDS011;73431;40.794;43.836;2023-11-18T01:58:36;13.10;;;6.78;;
83495;SDS011;73431;40.794;43.836;2023-11-18T02:01:04;18.20;;;7.20;;
83495;SDS011;73431;40.794;43.836;2023-11-18T02:03:35;21.23;;;7.95;;
83495;SDS011;73431;40.794;43.836;2023-11-18T02:06:03;15.68;;;7.22;;
83495;SDS011;73431;40.794;43.836;2023-11-18T02:08:33;13.18;;;6.78;;
83495;SDS011;73431;40.794;43.836;2023-11-18T02:11:14;27.42;;;8.82;;
83495;SDS011;73431;40.794;43.836;2023-11-18T02:13:47;21.63;;;7.55;;
83495;SDS011;73431;40.794;43.836;2023-11-18T02:16:17;13.48;;;6.60;;
83495;SDS011;73431;40.794;43.836;2023-11-18T02:18:47;19.00;;;8.18;;
83495;SDS011;73431;40.794;43.836;2023-11-18T02:21:16;16.27;;;7.93;;
83495;SDS011;73431;40.794;43.836;2023-11-18T02:23:45;15.57;;;7.07;;
83495;SDS011;73431;40.794;43.836;2023-11-18T02:26:22;18.02;;;8.82;;
83495;SDS011;73431;40.794;43.836;2023-11-18T02:28:50;14.30;;;7.43;;
83495;SDS011;73431;40.794;43.836;2023-11-18T02:31:23;18.30;;;7.57;;
83495;SDS011;73431;40.794;43.836;2023-11-18T02:36:36;16.52;;;7.85;;
83495;SDS011;73431;40.794;43.836;2023-11-18T02:39:11;17.77;;;8.35;;
83495;SDS011;73431;40.794;43.836;2023-11-18T02:41:46;16.55;;;8.63;;
83495;SDS011;73431;40.794;43.836;2023-11-18T02:44:15;20.67;;;8.15;;
83495;SDS011;73431;40.794;43.836;2023-11-18T02:46:47;20.90;;;8.35;;
83495;SDS011;73431;40.794;43.836;2023-11-18T02:49:15;20.58;;;8.45;;
83495;SDS011;73431;40.794;43.836;2023-11-18T02:51:44;31.65;;;8.32;;
83495;SDS011;73431;40.794;43.836;2023-11-18T02:54:14;17.48;;;8.65;;
83495;SDS011;73431;40.794;43.836;2023-11-18T02:56:43;16.85;;;7.50;;
83495;SDS011;73431;40.794;43.836;2023-11-18T02:59:11;15.73;;;8.30;;
83495;SDS011;73431;40.794;43.836;2023-11-18T03:01:39;15.63;;;8.65;;
83495;SDS011;73431;40.794;43.836;2023-11-18T03:04:06;18.75;;;7.32;;
83495;SDS011;73431;40.794;43.836;2023-11-18T03:06:35;16.27;;;8.00;;
83495;SDS011;73431;40.794;43.836;2023-11-18T03:09:03;19.45;;;7.13;;
83495;SDS011;73431;40.794;43.836;2023-11-18T03:11:34;12.77;;;7.30;;
83495;SDS011;73431;40.794;43.836;2023-11-18T03:14:02;19.92;;;7.75;;
83495;SDS011;73431;40.794;43.836;2023-11-18T03:16:32;18.75;;;7.90;;
83495;SDS011;73431;40.794;43.836;2023-11-18T03:19:00;19.80;;;7.60;;
83495;SDS011;73431;40.794;43.836;2023-11-18T03:21:28;17.50;;;8.15;;
83495;SDS011;73431;40.794;43.836;2023-11-18T03:23:56;17.33;;;7.32;;
83495;SDS011;73431;40.794;43.836;2023-11-18T03:26:24;19.00;;;8.75;;
83495;SDS011;73431;40.794;43.836;2023-11-18T03:28:53;25.45;;;10.13;;
83495;SDS011;73431;40.794;43.836;2023-11-18T03:31:20;24.50;;;9.85;;
83495;SDS011;73431;40.794;43.836;2023-11-18T03:33:48;20.90;;;8.70;;
83495;SDS011;73431;40.794;43.836;2023-11-18T03:36:16;17.08;;;9.40;;
83495;SDS011;73431;40.794;43.836;2023-11-18T03:38:44;24.35;;;9.85;;
83495;SDS011;73431;40.794;43.836;2023-11-18T03:41:12;17.83;;;9.25;;
83495;SDS011;73431;40.794;43.836;2023-11-18T03:43:40;19.65;;;8.90;;
83495;SDS011;73431;40.794;43.836;2023-11-18T03:46:07;23.23;;;9.88;;
83495;SDS011;73431;40.794;43.836;2023-11-18T03:48:35;35.53;;;10.10;;
83495;SDS011;73431;40.794;43.836;2023-11-18T03:51:06;21.92;;;9.35;;
83495;SDS011;73431;40.794;43.836;2023-11-18T03:53:33;41.30;;;12.77;;
83495;SDS011;73431;40.794;43.836;2023-11-18T03:56:01;41.22;;;10.75;;
83495;SDS011;73431;40.794;43.836;2023-11-18T03:58:29;26.42;;;9.43;;
83495;SDS011;73431;40.794;43.836;2023-11-18T04:01:00;25.02;;;9.65;;
83495;SDS011;73431;40.794;43.836;2023-11-18T04:03:28;28.40;;;9.75;;
83495;SDS011;73431;40.794;43.836;2023-11-18T04:05:56;25.30;;;9.57;;
83495;SDS011;73431;40.794;43.836;2023-11-18T04:08:24;26.13;;;10.82;;
83495;SDS011;73431;40.794;43.836;2023-11-18T04:10:52;22.88;;;9.95;;
83495;SDS011;73431;40.794;43.836;2023-11-18T04:13:20;20.88;;;11.13;;
83495;SDS011;73431;40.794;43.836;2023-11-18T04:15:47;23.80;;;10.52;;
83495;SDS011;73431;40.794;43.836;2023-11-18T04:18:15;26.83;;;11.18;;
83495;SDS011;73431;40.794;43.836;2023-11-18T04:20:43;24.35;;;9.68;;
83495;SDS011;73431;40.794;43.836;2023-11-18T04:23:11;30.15;;;11.27;;
83495;SDS011;73431;40.794;43.836;2023-11-18T04:25:39;26.10;;;11.10;;
83495;SDS011;73431;40.794;43.836;2023-11-18T04:28:06;22.88;;;11.38;;
83495;SDS011;73431;40.794;43.836;2023-11-18T04:30:34;29.00;;;11.60;;
83495;SDS011;73431;40.794;43.836;2023-11-18T04:33:01;108.10;;;45.97;;
83495;SDS011;73431;40.794;43.836;2023-11-18T04:35:29;131.32;;;53.95;;
83495;SDS011;73431;40.794;43.836;2023-11-18T04:37:58;160.32;;;56.60;;
83495;SDS011;73431;40.794;43.836;2023-11-18T04:40:26;50.25;;;20.88;;
83495;SDS011;73431;40.794;43.836;2023-11-18T04:42:54;46.60;;;19.55;;
83495;SDS011;73431;40.794;43.836;2023-11-18T04:45:22;36.03;;;13.95;;
83495;SDS011;73431;40.794;43.836;2023-11-18T04:47:50;26.35;;;11.20;;
83495;SDS011;73431;40.794;43.836;2023-11-18T04:50:19;18.83;;;10.60;;
83495;SDS011;73431;40.794;43.836;2023-11-18T04:52:47;18.63;;;8.45;;
83495;SDS011;73431;40.794;43.836;2023-11-18T04:55:15;18.77;;;9.32;;
83495;SDS011;73431;40.794;43.836;2023-11-18T04:57:44;24.27;;;7.80;;
83495;SDS011;73431;40.794;43.836;2023-11-18T05:00:12;29.25;;;13.10;;
83495;SDS011;73431;40.794;43.836;2023-11-18T05:02:45;30.83;;;15.32;;
83495;SDS011;73431;40.794;43.836;2023-11-18T05:05:16;46.47;;;20.90;;
83495;SDS011;73431;40.794;43.836;2023-11-18T05:07:44;23.67;;;11.82;;
83495;SDS011;73431;40.794;43.836;2023-11-18T05:10:12;20.27;;;9.18;;
83495;SDS011;73431;40.794;43.836;2023-11-18T05:12:39;19.08;;;8.18;;
83495;SDS011;73431;40.794;43.836;2023-11-18T05:15:07;16.17;;;8.02;;
83495;SDS011;73431;40.794;43.836;2023-11-18T05:17:38;20.02;;;8.43;;
83495;SDS011;73431;40.794;43.836;2023-11-18T05:20:05;25.25;;;9.55;;
83495;SDS011;73431;40.794;43.836;2023-11-18T05:22:38;38.17;;;11.93;;
83495;SDS011;73431;40.794;43.836;2023-11-18T05:25:06;46.20;;;12.77;;
83495;SDS011;73431;40.794;43.836;2023-11-18T05:27:37;34.45;;;12.57;;
83495;SDS011;73431;40.794;43.836;2023-11-18T05:30:07;34.08;;;13.00;;
83495;SDS011;73431;40.794;43.836;2023-11-18T05:32:36;37.05;;;15.77;;
83495;SDS011;73431;40.794;43.836;2023-11-18T05:35:04;27.27;;;12.55;;
83495;SDS011;73431;40.794;43.836;2023-11-18T05:37:32;30.23;;;15.15;;
83495;SDS011;73431;40.794;43.836;2023-11-18T05:40:05;39.35;;;15.73;;
83495;SDS011;73431;40.794;43.836;2023-11-18T05:42:34;31.02;;;13.77;;
83495;SDS011;73431;40.794;43.836;2023-11-18T05:45:06;34.20;;;13.98;;
83495;SDS011;73431;40.794;43.836;2023-11-18T05:47:36;27.10;;;13.35;;
83495;SDS011;73431;40.794;43.836;2023-11-18T05:50:04;19.98;;;9.50;;
83495;SDS011;73431;40.794;43.836;2023-11-18T05:52:33;22.70;;;9.13;;
83495;SDS011;73431;40.794;43.836;2023-11-18T05:55:01;14.57;;;7.88;;
83495;SDS011;73431;40.794;43.836;2023-11-18T05:59:56;15.55;;;8.40;;
83495;SDS011;73431;40.794;43.836;2023-11-18T06:02:24;16.05;;;8.30;;
83495;SDS011;73431;40.794;43.836;2023-11-18T06:04:52;22.05;;;9.93;;
83495;SDS011;73431;40.794;43.836;2023-11-18T06:07:21;13.98;;;7.90;;
83495;SDS011;73431;40.794;43.836;2023-11-18T06:09:50;20.63;;;9.00;;
83495;SDS011;73431;40.794;43.836;2023-11-18T06:12:17;16.90;;;6.70;;
83495;SDS011;73431;40.794;43.836;2023-11-18T06:14:45;17.27;;;9.48;;
83495;SDS011;73431;40.794;43.836;2023-11-18T06:17:13;18.35;;;6.18;;
83495;SDS011;73431;40.794;43.836;2023-11-18T06:19:42;15.23;;;5.15;;
83495;SDS011;73431;40.794;43.836;2023-11-18T06:22:09;19.05;;;5.28;;
83495;SDS011;73431;40.794;43.836;2023-11-18T06:24:38;11.80;;;4.25;;
83495;SDS011;73431;40.794;43.836;2023-11-18T06:27:06;13.05;;;5.40;;
83495;SDS011;73431;40.794;43.836;2023-11-18T06:29:37;14.02;;;5.93;;
83495;SDS011;73431;40.794;43.836;2023-11-18T06:32:05;12.88;;;6.25;;
83495;SDS011;73431;40.794;43.836;2023-11-18T06:34:33;17.50;;;6.00;;
83495;SDS011;73431;40.794;43.836;2023-11-18T06:37:00;9.77;;;4.13;;
83495;SDS011;73431;40.794;43.836;2023-11-18T06:39:28;9.77;;;3.17;;
83495;SDS011;73431;40.794;43.836;2023-11-18T06:41:56;6.75;;;2.78;;
83495;SDS011;73431;40.794;43.836;2023-11-18T06:44:25;8.25;;;2.67;;
83495;SDS011;73431;40.794;43.836;2023-11-18T06:46:53;5.85;;;2.33;;
83495;SDS011;73431;40.794;43.836;2023-11-18T06:49:21;5.15;;;1.80;;
83495;SDS011;73431;40.794;43.836;2023-11-18T06:51:48;4.18;;;2.28;;
83495;SDS011;73431;40.794;43.836;2023-11-18T06:54:16;4.22;;;2.25;;
83495;SDS011;73431;40.794;43.836;2023-11-18T06:56:44;5.65;;;3.20;;
83495;SDS011;73431;40.794;43.836;2023-11-18T06:59:13;10.65;;;4.10;;
83495;SDS011;73431;40.794;43.836;2023-11-18T07:01:43;7.72;;;2.97;;
83495;SDS011;73431;40.794;43.836;2023-11-18T07:04:13;9.98;;;4.72;;
83495;SDS011;73431;40.794;43.836;2023-11-18T07:06:43;13.70;;;5.22;;
83495;SDS011;73431;40.794;43.836;2023-11-18T07:09:12;10.68;;;5.20;;
83495;SDS011;73431;40.794;43.836;2023-11-18T07:11:48;23.23;;;7.32;;
83495;SDS011;73431;40.794;43.836;2023-11-18T07:14:18;13.80;;;7.30;;
83495;SDS011;73431;40.794;43.836;2023-11-18T07:16:46;14.27;;;7.43;;
83495;SDS011;73431;40.794;43.836;2023-11-18T07:19:15;13.82;;;7.78;;
83495;SDS011;73431;40.794;43.836;2023-11-18T07:21:49;15.82;;;8.43;;
83495;SDS011;73431;40.794;43.836;2023-11-18T07:24:17;14.73;;;7.80;;
83495;SDS011;73431;40.794;43.836;2023-11-18T07:26:48;17.45;;;8.77;;
83495;SDS011;73431;40.794;43.836;2023-11-18T07:29:18;22.77;;;9.65;;
83495;SDS011;73431;40.794;43.836;2023-11-18T07:31:46;19.73;;;10.23;;
83495;SDS011;73431;40.794;43.836;2023-11-18T07:34:14;7.55;;;4.97;;
83495;SDS011;73431;40.794;43.836;2023-11-18T07:36:42;12.20;;;6.38;;
83495;SDS011;73431;40.794;43.836;2023-11-18T07:39:13;11.40;;;8.88;;
83495;SDS011;73431;40.794;43.836;2023-11-18T07:41:52;8.88;;;4.63;;
83495;SDS011;73431;40.794;43.836;2023-11-18T07:44:27;12.23;;;4.13;;
83495;SDS011;73431;40.794;43.836;2023-11-18T07:46:55;8.15;;;4.78;;
83495;SDS011;73431;40.794;43.836;2023-11-18T07:49:23;9.45;;;4.05;;
83495;SDS011;73431;40.794;43.836;2023-11-18T07:51:53;5.90;;;3.45;;
83495;SDS011;73431;40.794;43.836;2023-11-18T07:54:21;5.70;;;3.17;;
83495;SDS011;73431;40.794;43.836;2023-11-18T07:56:49;4.40;;;2.10;;
83495;SDS011;73431;40.794;43.836;2023-11-18T07:59:17;9.73;;;3.17;;
83495;SDS011;73431;40.794;43.836;2023-11-18T08:01:45;5.13;;;2.83;;
83495;SDS011;73431;40.794;43.836;2023-11-18T08:04:13;5.00;;;3.00;;
83495;SDS011;73431;40.794;43.836;2023-11-18T08:06:41;12.43;;;5.40;;
83495;SDS011;73431;40.794;43.836;2023-11-18T08:09:10;5.90;;;3.20;;
83495;SDS011;73431;40.794;43.836;2023-11-18T08:11:40;8.52;;;2.97;;
83495;SDS011;73431;40.794;43.836;2023-11-18T08:14:09;5.05;;;2.45;;
83495;SDS011;73431;40.794;43.836;2023-11-18T08:16:38;4.70;;;2.80;;
83495;SDS011;73431;40.794;43.836;2023-11-18T08:19:05;4.93;;;2.85;;
83495;SDS011;73431;40.794;43.836;2023-11-18T08:21:35;8.02;;;3.22;;
83495;SDS011;73431;40.794;43.836;2023-11-18T08:24:06;4.90;;;2.88;;
83495;SDS011;73431;40.794;43.836;2023-11-18T08:26:35;5.22;;;2.80;;
83495;SDS011;73431;40.794;43.836;2023-11-18T08:29:03;5.18;;;2.75;;
83495;SDS011;73431;40.794;43.836;2023-11-18T08:31:34;5.03;;;2.70;;
83495;SDS011;73431;40.794;43.836;2023-11-18T08:34:02;6.90;;;3.20;;
83495;SDS011;73431;40.794;43.836;2023-11-18T08:36:32;5.45;;;3.33;;
83495;SDS011;73431;40.794;43.836;2023-11-18T08:39:01;7.03;;;3.22;;
83495;SDS011;73431;40.794;43.836;2023-11-18T08:41:28;6.13;;;3.75;;
83495;SDS011;73431;40.794;43.836;2023-11-18T08:43:58;12.10;;;4.82;;
83495;SDS011;73431;40.794;43.836;2023-11-18T08:46:46;7.30;;;3.25;;
83495;SDS011;73431;40.794;43.836;2023-11-18T08:49:15;5.93;;;2.58;;
83495;SDS011;73431;40.794;43.836;2023-11-18T08:51:48;6.28;;;2.88;;
83495;SDS011;73431;40.794;43.836;2023-11-18T08:54:24;7.68;;;2.45;;
83495;SDS011;73431;40.794;43.836;2023-11-18T08:59:58;7.22;;;4.18;;
83495;SDS011;73431;40.794;43.836;2023-11-18T09:02:29;4.00;;;2.75;;
83495;SDS011;73431;40.794;43.836;2023-11-18T09:05:12;9.70;;;3.38;;
83495;SDS011;73431;40.794;43.836;2023-11-18T09:10:10;10.30;;;3.00;;
83495;SDS011;73431;40.794;43.836;2023-11-18T09:12:39;4.65;;;2.75;;
83495;SDS011;73431;40.794;43.836;2023-11-18T09:15:12;5.72;;;3.08;;
83495;SDS011;73431;40.794;43.836;2023-11-18T09:17:49;5.93;;;3.08;;
83495;SDS011;73431;40.794;43.836;2023-11-18T09:20:17;5.85;;;3.20;;
83495;SDS011;73431;40.794;43.836;2023-11-18T09:22:48;4.45;;;2.67;;
83495;SDS011;73431;40.794;43.836;2023-11-18T09:25:16;5.72;;;2.83;;
83495;SDS011;73431;40.794;43.836;2023-11-18T09:27:45;9.45;;;3.38;;
83495;SDS011;73431;40.794;43.836;2023-11-18T09:30:12;10.02;;;3.22;;
83495;SDS011;73431;40.794;43.836;2023-11-18T09:32:41;11.73;;;3.45;;
83495;SDS011;73431;40.794;43.836;2023-11-18T09:35:09;10.25;;;2.90;;
83495;SDS011;73431;40.794;43.836;2023-11-18T09:37:39;9.40;;;3.20;;
83495;SDS011;73431;40.794;43.836;2023-11-18T09:40:13;10.32;;;3.97;;
83495;SDS011;73431;40.794;43.836;2023-11-18T09:42:41;17.25;;;4.53;;
83495;SDS011;73431;40.794;43.836;2023-11-18T09:45:11;10.05;;;3.25;;
83495;SDS011;73431;40.794;43.836;2023-11-18T09:47:42;10.77;;;3.70;;
83495;SDS011;73431;40.794;43.836;2023-11-18T09:50:16;23.33;;;8.45;;
83495;SDS011;73431;40.794;43.836;2023-11-18T09:52:48;6.75;;;4.35;;
83495;SDS011;73431;40.794;43.836;2023-11-18T09:55:26;13.63;;;4.63;;
83495;SDS011;73431;40.794;43.836;2023-11-18T09:58:12;9.38;;;4.15;;
83495;SDS011;73431;40.794;43.836;2023-11-18T10:00:46;9.65;;;4.40;;
83495;SDS011;73431;40.794;43.836;2023-11-18T10:03:20;12.63;;;4.32;;
83495;SDS011;73431;40.794;43.836;2023-11-18T10:05:50;11.95;;;5.53;;
83495;SDS011;73431;40.794;43.836;2023-11-18T10:08:22;8.43;;;5.20;;
83495;SDS011;73431;40.794;43.836;2023-11-18T10:10:53;6.35;;;4.68;;
83495;SDS011;73431;40.794;43.836;2023-11-18T10:13:32;6.85;;;3.90;;
83495;SDS011;73431;40.794;43.836;2023-11-18T10:16:01;7.55;;;3.60;;
83495;SDS011;73431;40.794;43.836;2023-11-18T10:18:31;6.32;;;3.50;;
83495;SDS011;73431;40.794;43.836;2023-11-18T10:21:04;5.85;;;3.75;;
83495;SDS011;73431;40.794;43.836;2023-11-18T10:23:35;6.80;;;3.70;;
83495;SDS011;73431;40.794;43.836;2023-11-18T10:26:05;7.80;;;3.78;;
83495;SDS011;73431;40.794;43.836;2023-11-18T10:28:35;6.70;;;4.10;;
83495;SDS011;73431;40.794;43.836;2023-11-18T10:31:06;6.53;;;3.92;;
83495;SDS011;73431;40.794;43.836;2023-11-18T10:33:38;5.03;;;3.30;;
83495;SDS011;73431;40.794;43.836;2023-11-18T10:36:19;9.38;;;3.80;;
83495;SDS011;73431;40.794;43.836;2023-11-18T10:38:52;5.65;;;3.13;;
83495;SDS011;73431;40.794;43.836;2023-11-18T10:41:23;6.65;;;3.17;;
83495;SDS011;73431;40.794;43.836;2023-11-18T10:44:07;5.53;;;3.17;;
83495;SDS011;73431;40.794;43.836;2023-11-18T10:46:50;6.25;;;3.50;;
83495;SDS011;73431;40.794;43.836;2023-11-18T10:49:20;6.57;;;3.58;;
83495;SDS011;73431;40.794;43.836;2023-11-18T10:51:50;14.00;;;5.40;;
83495;SDS011;73431;40.794;43.836;2023-11-18T10:54:18;16.70;;;5.75;;
83495;SDS011;73431;40.794;43.836;2023-11-18T10:56:47;18.98;;;6.07;;
83495;SDS011;73431;40.794;43.836;2023-11-18T10:59:16;10.25;;;2.95;;
83495;SDS011;73431;40.794;43.836;2023-11-18T11:01:45;4.65;;;1.85;;
83495;SDS011;73431;40.794;43.836;2023-11-18T11:04:17;10.25;;;3.80;;
83495;SDS011;73431;40.794;43.836;2023-11-18T11:06:48;31.85;;;12.23;;
83495;SDS011;73431;40.794;43.836;2023-11-18T11:09:21;14.45;;;6.38;;
83495;SDS011;73431;40.794;43.836;2023-11-18T11:12:04;10.85;;;3.65;;
83495;SDS011;73431;40.794;43.836;2023-11-18T11:14:45;20.40;;;7.55;;
83495;SDS011;73431;40.794;43.836;2023-11-18T11:17:22;6.63;;;3.03;;
83495;SDS011;73431;40.794;43.836;2023-11-18T11:20:04;5.97;;;2.70;;
83495;SDS011;73431;40.794;43.836;2023-11-18T11:22:43;6.32;;;2.58;;
83495;SDS011;73431;40.794;43.836;2023-11-18T11:25:28;8.05;;;2.97;;
83495;SDS011;73431;40.794;43.836;2023-11-18T11:28:20;6.05;;;2.60;;
83495;SDS011;73431;40.794;43.836;2023-11-18T11:36:11;15.80;;;8.15;;
83495;SDS011;73431;40.794;43.836;2023-11-18T11:38:43;16.42;;;7.78;;
83495;SDS011;73431;40.794;43.836;2023-11-18T11:41:14;7.35;;;3.45;;
83495;SDS011;73431;40.794;43.836;2023-11-18T11:43:52;8.65;;;3.70;;
83495;SDS011;73431;40.794;43.836;2023-11-18T11:46:25;8.95;;;3.85;;
83495;SDS011;73431;40.794;43.836;2023-11-18T11:49:04;7.28;;;2.65;;
83495;SDS011;73431;40.794;43.836;2023-11-18T11:51:46;6.28;;;2.65;;
83495;SDS011;73431;40.794;43.836;2023-11-18T11:54:20;4.30;;;2.13;;
83495;SDS011;73431;40.794;43.836;2023-11-18T11:56:51;4.07;;;2.08;;
83495;SDS011;73431;40.794;43.836;2023-11-18T12:02:22;4.00;;;2.38;;
83495;SDS011;73431;40.794;43.836;2023-11-18T12:04:54;11.57;;;3.08;;
83495;SDS011;73431;40.794;43.836;2023-11-18T12:07:25;4.40;;;1.92;;
83495;SDS011;73431;40.794;43.836;2023-11-18T12:09:59;3.58;;;1.88;;
83495;SDS011;73431;40.794;43.836;2023-11-18T12:12:29;15.90;;;2.92;;
83495;SDS011;73431;40.794;43.836;2023-11-18T12:20:37;3.45;;;2.00;;
83495;SDS011;73431;40.794;43.836;2023-11-18T12:23:15;6.38;;;2.20;;
83495;SDS011;73431;40.794;43.836;2023-11-18T12:25:45;8.98;;;3.65;;
83495;SDS011;73431;40.794;43.836;2023-11-18T12:31:38;8.60;;;3.92;;
83495;SDS011;73431;40.794;43.836;2023-11-18T12:34:12;6.75;;;2.80;;
83495;SDS011;73431;40.794;43.836;2023-11-18T12:36:56;7.93;;;3.42;;
83495;SDS011;73431;40.794;43.836;2023-11-18T12:42:47;9.27;;;4.15;;
83495;SDS011;73431;40.794;43.836;2023-11-18T12:48:22;14.82;;;5.50;;
83495;SDS011;73431;40.794;43.836;2023-11-18T12:50:54;7.68;;;3.88;;
83495;SDS011;73431;40.794;43.836;2023-11-18T12:53:25;7.03;;;3.50;;
83495;SDS011;73431;40.794;43.836;2023-11-18T12:55:55;9.25;;;5.22;;
83495;SDS011;73431;40.794;43.836;2023-11-18T12:58:26;11.63;;;4.28;;
83495;SDS011;73431;40.794;43.836;2023-11-18T13:00:54;15.00;;;5.45;;
83495;SDS011;73431;40.794;43.836;2023-11-18T13:03:21;7.80;;;3.25;;
83495;SDS011;73431;40.794;43.836;2023-11-18T13:05:49;9.80;;;3.47;;
83495;SDS011;73431;40.794;43.836;2023-11-18T13:08:20;6.03;;;3.65;;
83495;SDS011;73431;40.794;43.836;2023-11-18T13:10:50;10.55;;;4.13;;
83495;SDS011;73431;40.794;43.836;2023-11-18T13:13:18;12.35;;;4.22;;
83495;SDS011;73431;40.794;43.836;2023-11-18T13:15:46;8.60;;;3.63;;
83495;SDS011;73431;40.794;43.836;2023-11-18T13:18:17;7.78;;;4.38;;
83495;SDS011;73431;40.794;43.836;2023-11-18T13:20:55;9.57;;;3.83;;
83495;SDS011;73431;40.794;43.836;2023-11-18T13:23:25;12.70;;;5.05;;
83495;SDS011;73431;40.794;43.836;2023-11-18T13:25:54;17.70;;;5.78;;
83495;SDS011;73431;40.794;43.836;2023-11-18T13:28:23;18.52;;;5.90;;
83495;SDS011;73431;40.794;43.836;2023-11-18T13:30:52;11.88;;;5.68;;
83495;SDS011;73431;40.794;43.836;2023-11-18T13:33:19;17.77;;;7.30;;
83495;SDS011;73431;40.794;43.836;2023-11-18T13:35:48;13.10;;;5.88;;
83495;SDS011;73431;40.794;43.836;2023-11-18T13:38:17;22.17;;;7.50;;
83495;SDS011;73431;40.794;43.836;2023-11-18T13:40:46;27.00;;;7.00;;
83495;SDS011;73431;40.794;43.836;2023-11-18T13:43:15;15.82;;;6.68;;
83495;SDS011;73431;40.794;43.836;2023-11-18T13:45:49;21.55;;;8.13;;
83495;SDS011;73431;40.794;43.836;2023-11-18T13:48:21;22.38;;;7.32;;
83495;SDS011;73431;40.794;43.836;2023-11-18T13:50:51;22.60;;;6.55;;
83495;SDS011;73431;40.794;43.836;2023-11-18T13:53:20;17.70;;;6.13;;
83495;SDS011;73431;40.794;43.836;2023-11-18T13:55:47;13.70;;;5.47;;
83495;SDS011;73431;40.794;43.836;2023-11-18T14:00:43;10.85;;;4.90;;
83495;SDS011;73431;40.794;43.836;2023-11-18T14:05:39;13.45;;;5.90;;
83495;SDS011;73431;40.794;43.836;2023-11-18T14:08:07;10.13;;;4.75;;
83495;SDS011;73431;40.794;43.836;2023-11-18T14:10:37;11.95;;;4.75;;
83495;SDS011;73431;40.794;43.836;2023-11-18T14:13:08;13.02;;;5.60;;
83495;SDS011;73431;40.794;43.836;2023-11-18T14:15:44;14.93;;;4.70;;
83495;SDS011;73431;40.794;43.836;2023-11-18T14:18:13;12.40;;;5.68;;
83495;SDS011;73431;40.794;43.836;2023-11-18T14:20:42;12.25;;;5.60;;
83495;SDS011;73431;40.794;43.836;2023-11-18T14:23:10;17.65;;;8.45;;
83495;SDS011;73431;40.794;43.836;2023-11-18T14:25:39;20.25;;;9.77;;
83495;SDS011;73431;40.794;43.836;2023-11-18T14:28:07;23.15;;;10.02;;
83495;SDS011;73431;40.794;43.836;2023-11-18T14:30:37;24.15;;;12.27;;
83495;SDS011;73431;40.794;43.836;2023-11-18T14:33:06;22.60;;;9.02;;
83495;SDS011;73431;40.794;43.836;2023-11-18T14:35:34;19.92;;;11.48;;
83495;SDS011;73431;40.794;43.836;2023-11-18T14:38:03;17.05;;;9.93;;
83495;SDS011;73431;40.794;43.836;2023-11-18T14:40:30;19.73;;;8.48;;
83495;SDS011;73431;40.794;43.836;2023-11-18T14:42:59;12.57;;;5.95;;
83495;SDS011;73431;40.794;43.836;2023-11-18T14:45:27;11.30;;;5.80;;
83495;SDS011;73431;40.794;43.836;2023-11-18T14:47:55;14.95;;;6.20;;
83495;SDS011;73431;40.794;43.836;2023-11-18T14:50:23;11.77;;;5.40;;
83495;SDS011;73431;40.794;43.836;2023-11-18T14:52:53;14.70;;;7.32;;
83495;SDS011;73431;40.794;43.836;2023-11-18T14:55:28;13.75;;;5.60;;
83495;SDS011;73431;40.794;43.836;2023-11-18T14:57:57;7.68;;;4.38;;
83495;SDS011;73431;40.794;43.836;2023-11-18T15:00:24;41.15;;;17.63;;
83495;SDS011;73431;40.794;43.836;2023-11-18T15:02:54;27.35;;;12.73;;
83495;SDS011;73431;40.794;43.836;2023-11-18T15:05:26;56.08;;;20.25;;
83495;SDS011;73431;40.794;43.836;2023-11-18T15:07:56;26.50;;;12.82;;
83495;SDS011;73431;40.794;43.836;2023-11-18T15:10:27;45.80;;;18.73;;
83495;SDS011;73431;40.794;43.836;2023-11-18T15:12:55;37.38;;;15.93;;
83495;SDS011;73431;40.794;43.836;2023-11-18T15:15:29;32.97;;;16.00;;
83495;SDS011;73431;40.794;43.836;2023-11-18T15:18:01;23.45;;;10.60;;
83495;SDS011;73431;40.794;43.836;2023-11-18T15:20:32;14.60;;;7.60;;
83495;SDS011;73431;40.794;43.836;2023-11-18T15:23:00;12.77;;;6.10;;
83495;SDS011;73431;40.794;43.836;2023-11-18T15:25:29;11.00;;;5.30;;
83495;SDS011;73431;40.794;43.836;2023-11-18T15:27:57;8.75;;;5.40;;